createdAt,value
2022-09-23T00:00:23.063Z,9.99
2022-09-23T00:03:49.211Z,10.01
2022-09-23T00:07:10.756Z,10.04
2022-09-23T00:10:35.617Z,9.94
2022-09-23T00:13:59.449Z,9.91
2022-09-23T00:17:23.621Z,9.91
2022-09-23T00:20:45.179Z,9.88
2022-09-23T00:24:08.116Z,9.84
2022-09-23T00:27:33.944Z,9.84
2022-09-23T00:30:55.856Z,9.83
2022-09-23T00:34:17.437Z,9.84
2022-09-23T00:37:39.018Z,9.71
2022-09-23T00:41:00.861Z,9.73
2022-09-23T00:44:50.189Z,9.71
2022-09-23T00:48:23.514Z,9.66
2022-09-23T00:51:54.545Z,9.70
2022-09-23T00:55:33.082Z,9.60
2022-09-23T00:58:54.661Z,9.51
2022-09-23T01:02:18.560Z,9.47
2022-09-23T01:05:42.936Z,9.43
2022-09-23T01:09:04.638Z,9.43
2022-09-23T01:12:48.008Z,9.36
2022-09-23T01:16:35.061Z,9.30
2022-09-23T01:20:30.420Z,9.22
2022-09-23T01:24:13.139Z,9.25
2022-09-23T01:27:34.631Z,9.15
2022-09-23T01:31:08.384Z,9.12
2022-09-23T01:34:33.229Z,9.12
2022-09-23T01:38:21.738Z,9.15
2022-09-23T01:41:53.177Z,9.12
2022-09-23T01:45:17.854Z,9.14
2022-09-23T01:48:46.683Z,9.14
2022-09-23T01:52:26.084Z,9.08
2022-09-23T01:55:58.964Z,9.09
2022-09-23T01:59:49.883Z,9.15
2022-09-23T02:03:16.939Z,9.05
2022-09-23T02:06:44.046Z,9.11
2022-09-23T02:10:24.226Z,9.11
2022-09-23T02:13:51.932Z,9.12
2022-09-23T02:17:23.876Z,9.16
2022-09-23T02:20:47.537Z,9.06
2022-09-23T02:24:17.145Z,9.02
2022-09-23T02:27:50.126Z,9.04
2022-09-23T02:31:37.265Z,9.04
2022-09-23T02:35:26.248Z,9.01
2022-09-23T02:38:57.867Z,9.01
2022-09-23T02:42:24.907Z,9.02
2022-09-23T02:45:49.531Z,9.05
2022-09-23T02:49:19.929Z,9.11
2022-09-23T02:52:44.203Z,9.05
2022-09-23T02:56:21.071Z,9.02
2022-09-23T02:59:43.065Z,8.99
2022-09-23T03:03:29.787Z,8.87
2022-09-23T03:07:02.842Z,8.87
2022-09-23T03:10:55.424Z,8.92
2022-09-23T03:14:23.012Z,8.89
2022-09-23T03:17:54.694Z,8.89
2022-09-23T03:21:22.059Z,8.84
2022-09-23T03:24:45.684Z,8.79
2022-09-23T03:28:10.449Z,8.82
2022-09-23T03:31:36.426Z,8.81
2022-09-23T03:35:00.996Z,8.79
2022-09-23T03:38:27.685Z,8.79
2022-09-23T03:41:53.071Z,8.89
2022-09-23T03:45:19.085Z,8.85
2022-09-23T03:48:40.812Z,8.77
2022-09-23T03:52:03.476Z,8.68
2022-09-23T03:55:29.527Z,8.72
2022-09-23T03:58:51.098Z,8.75
2022-09-23T04:02:12.723Z,8.78
2022-09-23T04:05:34.267Z,8.82
2022-09-23T04:08:58.585Z,8.79
2022-09-23T04:12:27.550Z,8.77
2022-09-23T04:15:50.359Z,8.77
2022-09-23T04:19:12.900Z,8.74
2022-09-23T04:22:35.106Z,8.79
2022-09-23T04:26:01.480Z,8.78
2022-09-23T04:29:26.852Z,8.77
2022-09-23T04:32:51.985Z,8.74
2022-09-23T04:36:15.748Z,8.75
2022-09-23T04:39:37.270Z,8.72
2022-09-23T04:42:59.628Z,8.71
2022-09-23T04:46:21.182Z,8.71
2022-09-23T04:49:42.752Z,8.75
2022-09-23T04:53:06.937Z,8.74
2022-09-23T04:56:33.337Z,8.71
2022-09-23T04:59:57.527Z,8.71
2022-09-23T05:03:19.129Z,8.79
2022-09-23T05:06:43.947Z,8.78
2022-09-23T05:10:06.145Z,8.89
2022-09-23T05:13:30.447Z,8.88
2022-09-23T05:16:52.459Z,8.97
2022-09-23T05:20:14.442Z,9.06
2022-09-23T05:23:37.310Z,9.11
2022-09-23T05:27:00.903Z,9.26
2022-09-23T05:30:25.013Z,9.35
2022-09-23T05:33:49.148Z,9.42
2022-09-23T05:37:10.716Z,9.46
2022-09-23T05:40:32.311Z,9.51
2022-09-23T05:43:57.927Z,9.53
2022-09-23T05:47:19.429Z,9.69
2022-09-23T05:50:51.970Z,9.80
2022-09-23T05:54:13.560Z,9.84
2022-09-23T05:57:37.265Z,9.97
2022-09-23T06:01:03.629Z,10.06
2022-09-23T06:04:25.190Z,10.15
2022-09-23T06:07:49.631Z,10.33
2022-09-23T06:11:14.024Z,10.49
2022-09-23T06:14:35.757Z,10.66
2022-09-23T06:17:59.956Z,10.73
2022-09-23T06:21:21.535Z,10.83
2022-09-23T06:24:43.211Z,10.76
2022-09-23T06:28:04.996Z,10.83
2022-09-23T06:31:26.648Z,11.10
2022-09-23T06:34:51.958Z,11.32
2022-09-23T06:38:13.765Z,11.49
2022-09-23T06:41:35.304Z,11.79
2022-09-23T06:44:57.130Z,12.07
2022-09-23T06:48:20.917Z,12.37
2022-09-23T06:51:44.917Z,12.56
2022-09-23T06:55:11.663Z,12.28
2022-09-23T06:58:35.187Z,12.69
2022-09-23T07:01:59.114Z,12.79
2022-09-23T07:05:22.369Z,12.75
2022-09-23T07:08:51.276Z,13.28
2022-09-23T07:12:17.623Z,13.75
2022-09-23T07:15:39.171Z,12.99
2022-09-23T07:19:01.199Z,13.16
2022-09-23T07:22:26.555Z,13.54
2022-09-23T07:25:49.543Z,13.55
2022-09-23T07:29:15.895Z,14.13
2022-09-23T07:32:47.447Z,14.70
2022-09-23T07:36:13.854Z,14.72
2022-09-23T07:39:37.773Z,14.03
2022-09-23T07:43:05.334Z,13.85
2022-09-23T07:46:29.991Z,14.31
2022-09-23T07:49:54.121Z,14.36
2022-09-23T07:53:16.061Z,14.91
2022-09-23T07:56:37.978Z,14.78
2022-09-23T08:00:01.063Z,14.48
2022-09-23T08:03:24.876Z,14.41
2022-09-23T08:06:49.001Z,14.89
2022-09-23T08:10:10.489Z,14.24
2022-09-23T08:13:34.783Z,14.44
2022-09-23T08:16:57.561Z,15.12
2022-09-23T08:20:43.663Z,15.43
2022-09-23T08:24:13.563Z,15.87
2022-09-23T08:27:35.111Z,16.40
2022-09-23T08:30:56.738Z,16.36
2022-09-23T08:34:20.004Z,16.28
2022-09-23T08:37:41.503Z,16.52
2022-09-23T08:41:23.247Z,17.08
2022-09-23T08:45:00.781Z,17.62
2022-09-23T08:48:32.706Z,16.92
2022-09-23T08:51:55.785Z,16.18
2022-09-23T08:55:19.573Z,16.36
2022-09-23T08:58:43.986Z,16.94
2022-09-23T09:02:18.599Z,17.14
2022-09-23T09:05:41.015Z,18.04
2022-09-23T09:09:04.857Z,18.40
2022-09-23T09:12:48.099Z,18.61
2022-09-23T09:17:00.066Z,18.08
2022-09-23T09:20:36.120Z,17.73
2022-09-23T09:24:00.437Z,17.14
2022-09-23T09:27:23.982Z,17.28
2022-09-23T09:30:48.845Z,17.63
2022-09-23T09:34:34.821Z,18.07
2022-09-23T09:37:56.658Z,18.14
2022-09-23T09:41:21.348Z,18.01
2022-09-23T09:44:42.903Z,17.35
2022-09-23T09:48:17.902Z,17.63
2022-09-23T09:51:43.009Z,17.69
2022-09-23T09:55:13.568Z,17.43
2022-09-23T09:58:48.576Z,17.55
2022-09-23T10:02:21.638Z,17.46
2022-09-23T10:05:46.152Z,17.48
2022-09-23T10:09:07.744Z,17.57
2022-09-23T10:12:49.899Z,18.56
2022-09-23T10:16:15.575Z,18.96
2022-09-23T10:19:44.748Z,18.89
2022-09-23T10:23:14.270Z,19.92
2022-09-23T10:26:44.802Z,19.89
2022-09-23T10:30:25.304Z,21.09
2022-09-23T10:33:54.786Z,20.30
2022-09-23T10:37:30.087Z,19.83
2022-09-23T10:41:13.130Z,20.39
2022-09-23T10:45:13.121Z,20.82
2022-09-23T10:48:43.205Z,20.51
2022-09-23T10:52:32.641Z,19.89
2022-09-23T10:56:18.991Z,18.88
2022-09-23T10:59:50.554Z,20.23
2022-09-23T11:03:36.300Z,21.00
2022-09-23T11:07:17.230Z,20.72
2022-09-23T11:11:00.488Z,19.82
2022-09-23T11:15:07.582Z,21.12
2022-09-23T11:18:40.762Z,21.06
2022-09-23T11:22:15.866Z,19.38
2022-09-23T11:25:54.747Z,19.81
2022-09-23T11:29:51.805Z,18.14
2022-09-23T11:33:39.295Z,16.98
2022-09-23T11:37:15.872Z,17.40
2022-09-23T11:40:46.454Z,17.87
2022-09-23T11:44:28.458Z,18.22
2022-09-23T11:48:03.246Z,18.11
2022-09-23T11:51:27.079Z,17.91
2022-09-23T11:54:54.538Z,17.59
2022-09-23T11:58:37.369Z,17.49
2022-09-23T12:02:20.060Z,17.55
2022-09-23T12:05:47.440Z,17.24
2022-09-23T12:09:57.788Z,17.28
2022-09-23T12:13:22.568Z,17.18
2022-09-23T12:17:08.772Z,17.31
2022-09-23T12:20:45.410Z,16.88
2022-09-23T12:24:10.822Z,16.76
2022-09-23T12:27:40.308Z,16.77
2022-09-23T12:31:04.610Z,16.74
2022-09-23T12:34:37.801Z,16.73
2022-09-23T12:38:03.907Z,16.91
2022-09-23T12:41:29.677Z,17.07
2022-09-23T12:45:32.772Z,17.24
2022-09-23T12:48:58.046Z,17.25
2022-09-23T12:52:19.629Z,17.27
2022-09-23T12:55:51.613Z,17.43
2022-09-23T12:59:16.163Z,17.32
2022-09-23T13:02:39.492Z,17.17
2022-09-23T13:06:20.286Z,17.24
2022-09-23T13:09:46.981Z,17.49
2022-09-23T13:13:19.955Z,17.70
2022-09-23T13:16:45.886Z,17.80
2022-09-23T13:20:19.696Z,17.94
2022-09-23T13:24:13.100Z,18.00
2022-09-23T13:27:36.208Z,18.15
2022-09-23T13:31:00.771Z,18.20
2022-09-23T13:34:30.552Z,18.47
2022-09-23T13:37:55.254Z,18.85
2022-09-23T13:41:19.299Z,19.11
2022-09-23T13:44:44.138Z,19.34
2022-09-23T13:48:10.987Z,19.26
2022-09-23T13:51:36.452Z,18.95
2022-09-23T13:54:58.144Z,18.80
2022-09-23T13:58:24.378Z,18.48
2022-09-23T14:01:47.173Z,17.77
2022-09-23T14:05:21.669Z,17.50
2022-09-23T14:08:51.846Z,17.53
2022-09-23T14:12:13.530Z,17.34
2022-09-23T14:15:36.963Z,17.07
2022-09-23T14:19:00.035Z,17.35
2022-09-23T14:22:28.787Z,17.62
2022-09-23T14:25:54.595Z,17.94
2022-09-23T14:29:42.569Z,18.21
2022-09-23T14:33:11.882Z,18.22
2022-09-23T14:36:54.943Z,18.05
2022-09-23T14:40:20.726Z,17.72
2022-09-23T14:44:18.601Z,17.48
2022-09-23T14:47:45.788Z,17.49
2022-09-23T14:51:13.222Z,17.50
2022-09-23T14:54:44.697Z,17.52
2022-09-23T14:58:16.614Z,17.52
2022-09-23T15:01:39.148Z,17.40
2022-09-23T15:05:15.673Z,17.22
2022-09-23T15:08:37.264Z,16.95
2022-09-23T15:12:20.721Z,16.88
2022-09-23T15:15:43.061Z,16.85
2022-09-23T15:19:05.165Z,16.90
2022-09-23T15:22:27.292Z,16.80
2022-09-23T15:25:51.899Z,16.81
2022-09-23T15:29:13.567Z,16.69
2022-09-23T15:32:38.089Z,16.83
2022-09-23T15:36:03.266Z,16.88
2022-09-23T15:39:35.806Z,16.92
2022-09-23T15:43:00.658Z,17.01
2022-09-23T15:46:24.149Z,17.12
2022-09-23T15:49:47.198Z,17.15
2022-09-23T15:53:18.333Z,17.15
2022-09-23T15:56:42.335Z,16.97
2022-09-23T16:00:12.227Z,17.10
2022-09-23T16:03:33.989Z,17.18
2022-09-23T16:06:59.125Z,17.15
2022-09-23T16:10:23.372Z,17.17
2022-09-23T16:13:45.156Z,17.18
2022-09-23T16:17:07.717Z,17.14
2022-09-23T16:20:30.356Z,17.07
2022-09-23T16:23:55.322Z,16.95
2022-09-23T16:27:20.746Z,16.84
2022-09-23T16:30:42.243Z,16.80
2022-09-23T16:34:04.126Z,16.80
2022-09-23T16:37:25.807Z,16.83
2022-09-23T16:40:47.506Z,16.60
2022-09-23T16:44:10.698Z,16.43
2022-09-23T16:47:32.452Z,16.40
2022-09-23T16:50:56.451Z,16.39
2022-09-23T16:54:19.302Z,16.39
2022-09-23T16:57:43.474Z,16.40
2022-09-23T17:01:31.747Z,16.36
2022-09-23T17:04:53.379Z,16.40
2022-09-23T17:08:16.933Z,16.40
2022-09-23T17:11:41.356Z,16.42
2022-09-23T17:15:07.493Z,16.40
2022-09-23T17:18:29.792Z,16.39
2022-09-23T17:21:53.266Z,16.32
2022-09-23T17:25:19.540Z,16.30
2022-09-23T17:28:43.214Z,16.32
2022-09-23T17:32:04.968Z,16.12
2022-09-23T17:35:26.530Z,15.95
2022-09-23T17:38:48.952Z,15.74
2022-09-23T17:42:13.312Z,15.66
2022-09-23T17:45:43.025Z,15.60
2022-09-23T17:49:08.630Z,15.60
2022-09-23T17:52:32.433Z,15.61
2022-09-23T17:55:55.772Z,15.53
2022-09-23T17:59:19.658Z,15.50
2022-09-23T18:02:41.218Z,15.42
2022-09-23T18:06:11.160Z,15.33
2022-09-23T18:09:32.717Z,15.30
2022-09-23T18:12:57.234Z,15.12
2022-09-23T18:16:20.445Z,15.10
2022-09-23T18:19:42.538Z,15.03
2022-09-23T18:23:04.144Z,14.92
2022-09-23T18:26:26.414Z,14.82
2022-09-23T18:29:52.850Z,14.78
2022-09-23T18:33:15.283Z,14.64
2022-09-23T18:36:37.647Z,14.60
2022-09-23T18:40:01.799Z,14.33
2022-09-23T18:43:37.272Z,14.23
2022-09-23T18:47:03.389Z,13.90
2022-09-23T18:50:40.545Z,13.95
2022-09-23T18:54:06.646Z,13.79
2022-09-23T18:57:30.449Z,13.41
2022-09-23T19:00:53.227Z,13.28
2022-09-23T19:04:17.145Z,13.33
2022-09-23T19:07:38.673Z,13.17
2022-09-23T19:11:02.805Z,13.20
2022-09-23T19:14:24.545Z,13.18
2022-09-23T19:17:48.654Z,13.14
2022-09-23T19:21:13.992Z,13.13
2022-09-23T19:24:35.577Z,13.10
2022-09-23T19:27:59.322Z,13.13
2022-09-23T19:31:26.668Z,12.88
2022-09-23T19:34:50.554Z,12.69
2022-09-23T19:38:12.221Z,12.65
2022-09-23T19:41:35.442Z,12.72
2022-09-23T19:44:59.389Z,12.68
2022-09-23T19:48:21.089Z,12.69
2022-09-23T19:51:46.798Z,12.68
2022-09-23T19:55:11.135Z,12.61
2022-09-23T19:58:35.525Z,12.59
2022-09-23T20:01:57.064Z,12.58
2022-09-23T20:05:20.920Z,12.49
2022-09-23T20:08:45.784Z,12.49
2022-09-23T20:12:07.322Z,12.49
2022-09-23T20:15:36.578Z,12.42
2022-09-23T20:19:00.965Z,12.32
2022-09-23T20:22:26.680Z,12.25
2022-09-23T20:26:16.733Z,12.20
2022-09-23T20:29:43.307Z,12.25
2022-09-23T20:33:09.648Z,12.21
2022-09-23T20:36:31.861Z,12.23
2022-09-23T20:39:53.424Z,12.23
2022-09-23T20:43:18.199Z,12.08
2022-09-23T20:46:48.258Z,11.91
2022-09-23T20:50:10.286Z,11.87
2022-09-23T20:53:32.788Z,11.77
2022-09-23T20:57:00.473Z,11.66
2022-09-23T21:00:24.561Z,11.58
2022-09-23T21:03:48.242Z,11.58
2022-09-23T21:07:12.451Z,11.51
2022-09-23T21:10:36.023Z,11.49
2022-09-23T21:14:01.521Z,11.40
2022-09-23T21:17:27.964Z,11.35
2022-09-23T21:20:59.925Z,11.28
2022-09-23T21:28:03.744Z,11.14
2022-09-23T21:31:28.174Z,11.08
2022-09-23T21:34:50.380Z,11.22
2022-09-23T21:38:11.896Z,11.17
2022-09-23T21:41:36.539Z,11.07
2022-09-23T21:44:58.026Z,11.12
2022-09-23T21:48:19.581Z,11.07
2022-09-23T21:51:41.638Z,11.03
2022-09-23T21:55:05.514Z,11.00
2022-09-23T21:58:28.521Z,11.03
2022-09-23T22:01:54.323Z,10.94
2022-09-23T22:05:18.877Z,10.83
2022-09-23T22:08:43.105Z,10.85
2022-09-23T22:12:13.102Z,10.81
2022-09-23T22:15:37.541Z,10.76
2022-09-23T22:19:05.255Z,10.70
2022-09-23T22:22:29.134Z,10.50
2022-09-23T22:26:00.673Z,10.39
2022-09-23T22:29:42.777Z,10.42
2022-09-23T22:33:07.128Z,10.41
2022-09-23T22:36:28.690Z,10.43
2022-09-23T22:39:50.197Z,10.49
2022-09-23T22:43:14.041Z,10.38
2022-09-23T22:46:35.600Z,10.19
2022-09-23T22:49:59.267Z,10.29
2022-09-23T22:53:21.073Z,10.23
2022-09-23T22:56:45.094Z,10.21
2022-09-23T23:00:07.862Z,10.16
2022-09-23T23:03:30.524Z,10.04
2022-09-23T23:06:55.710Z,9.98
2022-09-23T23:10:17.439Z,10.04
2022-09-23T23:13:44.043Z,10.05
2022-09-23T23:17:08.840Z,10.16
2022-09-23T23:20:32.973Z,9.99
2022-09-23T23:23:56.819Z,9.87
2022-09-23T23:27:18.361Z,9.71
2022-09-23T23:30:47.712Z,9.73
2022-09-23T23:34:20.314Z,9.63
2022-09-23T23:37:44.158Z,9.64
2022-09-23T23:41:11.080Z,9.51
2022-09-23T23:44:35.071Z,9.57
2022-09-23T23:48:01.359Z,9.57
2022-09-23T23:51:26.539Z,9.56
2022-09-23T23:54:48.051Z,9.43
2022-09-23T23:58:09.751Z,9.16
